N124TL KCXY-KUNV
Flight info
| Callsign | N124TL |
|---|---|
| Flight time | 0h 28m |
| Altitude | 4500 |
| Route | VFR WEST |
| Aircraft | BE58/L-VGD/C |
Departure
| Time | 2026-05-03 23:53 |
|---|---|
| Airport | Capital City Airport (KCXY) |
Arrival
| Time | 2026-05-04 00:21 |
|---|---|
| Airport | State College Regional Airport (KUNV) |
| Time | Latitude | Longitude | Altitude | Speed | Heading |
|---|---|---|---|---|---|
| 2026-05-03 23:49 | 40.21941 | -76.85193 | 340 ft | 0 kts | 344° |
| 2026-05-03 23:50 | 40.21967 | -76.85202 | 340 ft | 5 kts | 352° |
| 2026-05-03 23:50 | 40.21962 | -76.85232 | 339 ft | 7 kts | 174° |
| 2026-05-03 23:51 | 40.21900 | -76.85139 | 341 ft | 17 kts | 85° |
| 2026-05-03 23:51 | 40.21921 | -76.84990 | 343 ft | 23 kts | 79° |
| 2026-05-03 23:51 | 40.21963 | -76.84741 | 345 ft | 25 kts | 79° |
| 2026-05-03 23:51 | 40.21977 | -76.84559 | 346 ft | 16 kts | 133° |
| 2026-05-03 23:52 | 40.21917 | -76.84553 | 347 ft | 12 kts | 208° |
| 2026-05-03 23:52 | 40.21800 | -76.84931 | 345 ft | 85 kts | 253° |
| 2026-05-03 23:52 | 40.21585 | -76.85783 | 552 ft | 111 kts | 257° |
| 2026-05-03 23:52 | 40.21304 | -76.86836 | 775 ft | 132 kts | 250° |
| 2026-05-03 23:53 | 40.20871 | -76.87956 | 1084 ft | 142 kts | 243° |
| 2026-05-03 23:53 | 40.20496 | -76.89136 | 1426 ft | 142 kts | 270° |
| 2026-05-03 23:53 | 40.20908 | -76.90265 | 1789 ft | 147 kts | 314° |
| 2026-05-03 23:53 | 40.21925 | -76.90738 | 1871 ft | 173 kts | 344° |
| 2026-05-03 23:54 | 40.23203 | -76.90916 | 1683 ft | 194 kts | 347° |
| 2026-05-03 23:54 | 40.24594 | -76.91110 | 1373 ft | 205 kts | 348° |
| 2026-05-03 23:54 | 40.25951 | -76.91315 | 1405 ft | 188 kts | 347° |
| 2026-05-03 23:54 | 40.27223 | -76.91340 | 1413 ft | 178 kts | 359° |
| 2026-05-03 23:55 | 40.28434 | -76.91232 | 1427 ft | 169 kts | 359° |
| 2026-05-03 23:55 | 40.29595 | -76.91010 | 1436 ft | 166 kts | 0° |
| 2026-05-03 23:55 | 40.30725 | -76.90771 | 1444 ft | 163 kts | 1° |
| 2026-05-03 23:55 | 40.31843 | -76.90544 | 1456 ft | 162 kts | 2° |
| 2026-05-03 23:56 | 40.32934 | -76.90642 | 1451 ft | 155 kts | 343° |
| 2026-05-03 23:56 | 40.33890 | -76.91072 | 1618 ft | 137 kts | 321° |
| 2026-05-03 23:56 | 40.34644 | -76.91771 | 1782 ft | 128 kts | 316° |
| 2026-05-03 23:56 | 40.35350 | -76.92454 | 1874 ft | 127 kts | 317° |
| 2026-05-03 23:57 | 40.35813 | -76.93407 | 1859 ft | 126 kts | 284° |
| 2026-05-03 23:57 | 40.36078 | -76.94522 | 1854 ft | 129 kts | 286° |
| 2026-05-03 23:57 | 40.36355 | -76.95666 | 1852 ft | 132 kts | 286° |
| 2026-05-03 23:57 | 40.36635 | -76.96819 | 1854 ft | 134 kts | 286° |
| 2026-05-03 23:58 | 40.36914 | -76.97984 | 1858 ft | 134 kts | 286° |
| 2026-05-03 23:58 | 40.37270 | -76.99129 | 1922 ft | 131 kts | 300° |
| 2026-05-03 23:58 | 40.37779 | -77.00082 | 2382 ft | 128 kts | 302° |
| 2026-05-03 23:58 | 40.38295 | -77.01022 | 2820 ft | 126 kts | 302° |
| 2026-05-03 23:59 | 40.38803 | -77.01941 | 3261 ft | 125 kts | 303° |
| 2026-05-03 23:59 | 40.39315 | -77.02862 | 3660 ft | 124 kts | 303° |
| 2026-05-03 23:59 | 40.39822 | -77.03772 | 4051 ft | 124 kts | 303° |
| 2026-05-03 23:59 | 40.40332 | -77.04684 | 4450 ft | 123 kts | 303° |
| 2026-05-04 00:00 | 40.40837 | -77.05585 | 4857 ft | 123 kts | 304° |
| 2026-05-04 00:00 | 40.41340 | -77.06479 | 5250 ft | 122 kts | 304° |
| 2026-05-04 00:00 | 40.41837 | -77.07363 | 5625 ft | 122 kts | 304° |
| 2026-05-04 00:00 | 40.42339 | -77.08257 | 5994 ft | 121 kts | 305° |
| 2026-05-04 00:01 | 40.42831 | -77.09132 | 6344 ft | 120 kts | 305° |
| 2026-05-04 00:01 | 40.43361 | -77.10075 | 6342 ft | 136 kts | 305° |
| 2026-05-04 00:01 | 40.43939 | -77.11104 | 6320 ft | 142 kts | 305° |
| 2026-05-04 00:01 | 40.44539 | -77.12171 | 6307 ft | 146 kts | 304° |
| 2026-05-04 00:02 | 40.45151 | -77.13258 | 6311 ft | 148 kts | 305° |
| 2026-05-04 00:02 | 40.45766 | -77.14353 | 6308 ft | 149 kts | 305° |
| 2026-05-04 00:02 | 40.46383 | -77.15453 | 6308 ft | 150 kts | 305° |
| 2026-05-04 00:02 | 40.47006 | -77.16560 | 6306 ft | 150 kts | 304° |
| 2026-05-04 00:03 | 40.47631 | -77.17673 | 6308 ft | 150 kts | 304° |
| 2026-05-04 00:03 | 40.48245 | -77.18767 | 6310 ft | 150 kts | 304° |
| 2026-05-04 00:03 | 40.48872 | -77.19885 | 6310 ft | 150 kts | 304° |
| 2026-05-04 00:03 | 40.49490 | -77.20987 | 6311 ft | 150 kts | 304° |
| 2026-05-04 00:04 | 40.50109 | -77.22092 | 6318 ft | 149 kts | 304° |
| 2026-05-04 00:04 | 40.50729 | -77.23200 | 6317 ft | 150 kts | 304° |
| 2026-05-04 00:04 | 40.51349 | -77.24307 | 6317 ft | 150 kts | 304° |
| 2026-05-04 00:04 | 40.51967 | -77.25411 | 6318 ft | 150 kts | 304° |
| 2026-05-04 00:05 | 40.52583 | -77.26511 | 6317 ft | 150 kts | 304° |
| 2026-05-04 00:05 | 40.53206 | -77.27624 | 6318 ft | 150 kts | 304° |
| 2026-05-04 00:05 | 40.53825 | -77.28729 | 6315 ft | 150 kts | 303° |
| 2026-05-04 00:05 | 40.54449 | -77.29845 | 6313 ft | 149 kts | 303° |
| 2026-05-04 00:06 | 40.55063 | -77.30945 | 6313 ft | 149 kts | 303° |
| 2026-05-04 00:06 | 40.55684 | -77.32057 | 6315 ft | 149 kts | 303° |
| 2026-05-04 00:06 | 40.56296 | -77.33154 | 6317 ft | 149 kts | 303° |
| 2026-05-04 00:06 | 40.56912 | -77.34260 | 6317 ft | 149 kts | 303° |
| 2026-05-04 00:07 | 40.57525 | -77.35358 | 6312 ft | 149 kts | 303° |
| 2026-05-04 00:07 | 40.58144 | -77.36471 | 6309 ft | 149 kts | 303° |
| 2026-05-04 00:07 | 40.58754 | -77.37565 | 6307 ft | 149 kts | 304° |
| 2026-05-04 00:07 | 40.59373 | -77.38675 | 6300 ft | 149 kts | 304° |
| 2026-05-04 00:08 | 40.59987 | -77.39777 | 6301 ft | 149 kts | 304° |
| 2026-05-04 00:08 | 40.60607 | -77.40889 | 6301 ft | 149 kts | 303° |
| 2026-05-04 00:08 | 40.61221 | -77.41993 | 6304 ft | 149 kts | 304° |
| 2026-05-04 00:08 | 40.61835 | -77.43095 | 6305 ft | 149 kts | 304° |
| 2026-05-04 00:09 | 40.62449 | -77.44198 | 6301 ft | 148 kts | 303° |
| 2026-05-04 00:09 | 40.63065 | -77.45306 | 6306 ft | 148 kts | 303° |
| 2026-05-04 00:09 | 40.63673 | -77.46399 | 6304 ft | 148 kts | 303° |
| 2026-05-04 00:09 | 40.64285 | -77.47499 | 6307 ft | 148 kts | 303° |
| 2026-05-04 00:10 | 40.64899 | -77.48605 | 6304 ft | 148 kts | 303° |
| 2026-05-04 00:10 | 40.65510 | -77.49705 | 6300 ft | 148 kts | 303° |
| 2026-05-04 00:10 | 40.66118 | -77.50800 | 6305 ft | 148 kts | 303° |
| 2026-05-04 00:10 | 40.66725 | -77.51894 | 6298 ft | 148 kts | 303° |
| 2026-05-04 00:11 | 40.67337 | -77.52994 | 6305 ft | 147 kts | 303° |
| 2026-05-04 00:11 | 40.67945 | -77.54091 | 6308 ft | 147 kts | 303° |
| 2026-05-04 00:11 | 40.68551 | -77.55183 | 6309 ft | 148 kts | 303° |
| 2026-05-04 00:11 | 40.69154 | -77.56271 | 6309 ft | 148 kts | 303° |
| 2026-05-04 00:12 | 40.69764 | -77.57372 | 6308 ft | 148 kts | 303° |
| 2026-05-04 00:12 | 40.70375 | -77.58476 | 6307 ft | 148 kts | 303° |
| 2026-05-04 00:12 | 40.70987 | -77.59581 | 6308 ft | 148 kts | 303° |
| 2026-05-04 00:12 | 40.71587 | -77.60664 | 6308 ft | 148 kts | 303° |
| 2026-05-04 00:13 | 40.72198 | -77.61769 | 6309 ft | 148 kts | 303° |
| 2026-05-04 00:13 | 40.72804 | -77.62865 | 6309 ft | 148 kts | 303° |
| 2026-05-04 00:13 | 40.73418 | -77.63975 | 6309 ft | 148 kts | 303° |
| 2026-05-04 00:13 | 40.73995 | -77.65018 | 6310 ft | 148 kts | 302° |
| 2026-05-04 00:14 | 40.74652 | -77.66208 | 6085 ft | 155 kts | 302° |
| 2026-05-04 00:14 | 40.75225 | -77.67245 | 5829 ft | 156 kts | 302° |
| 2026-05-04 00:14 | 40.75829 | -77.68339 | 5565 ft | 157 kts | 302° |
| 2026-05-04 00:14 | 40.76452 | -77.69466 | 5296 ft | 157 kts | 302° |
| 2026-05-04 00:15 | 40.77039 | -77.70531 | 5041 ft | 154 kts | 301° |
| 2026-05-04 00:15 | 40.77668 | -77.71680 | 4490 ft | 162 kts | 300° |
| 2026-05-04 00:15 | 40.78292 | -77.72844 | 3972 ft | 152 kts | 300° |
| 2026-05-04 00:15 | 40.78845 | -77.74006 | 3559 ft | 151 kts | 298° |
| 2026-05-04 00:16 | 40.79359 | -77.75211 | 3291 ft | 147 kts | 286° |
| 2026-05-04 00:16 | 40.79524 | -77.76521 | 3023 ft | 147 kts | 275° |
| 2026-05-04 00:16 | 40.79639 | -77.77864 | 2767 ft | 146 kts | 279° |
| 2026-05-04 00:16 | 40.79955 | -77.79125 | 2599 ft | 144 kts | 291° |
| 2026-05-04 00:17 | 40.80405 | -77.80308 | 2389 ft | 145 kts | 295° |
| 2026-05-04 00:17 | 40.81052 | -77.81392 | 2105 ft | 154 kts | 311° |
| 2026-05-04 00:17 | 40.81836 | -77.82358 | 2000 ft | 152 kts | 312° |
| 2026-05-04 00:17 | 40.82767 | -77.83096 | 2027 ft | 164 kts | 345° |
| 2026-05-04 00:18 | 40.83859 | -77.82622 | 2087 ft | 177 kts | 38° |
| 2026-05-04 00:18 | 40.84712 | -77.81451 | 2030 ft | 171 kts | 47° |
| 2026-05-04 00:18 | 40.85403 | -77.80264 | 1734 ft | 155 kts | 51° |
| 2026-05-04 00:18 | 40.86122 | -77.79416 | 1643 ft | 123 kts | 2° |
| 2026-05-04 00:19 | 40.86829 | -77.79782 | 1610 ft | 109 kts | 316° |
| 2026-05-04 00:19 | 40.87325 | -77.80481 | 1607 ft | 96 kts | 279° |
| 2026-05-04 00:19 | 40.87070 | -77.81235 | 1525 ft | 96 kts | 231° |
| 2026-05-04 00:19 | 40.86631 | -77.81939 | 1498 ft | 99 kts | 235° |
| 2026-05-04 00:20 | 40.86203 | -77.82679 | 1401 ft | 104 kts | 235° |
| 2026-05-04 00:20 | 40.85760 | -77.83433 | 1268 ft | 100 kts | 235° |
| 2026-05-04 00:20 | 40.85348 | -77.84158 | 1198 ft | 89 kts | 235° |
| 2026-05-04 00:20 | 40.85052 | -77.84673 | 1208 ft | 56 kts | 233° |
| 2026-05-04 00:21 | 40.84896 | -77.84938 | 1211 ft | 33 kts | 233° |
| 2026-05-04 00:21 | 40.84784 | -77.85143 | 1211 ft | 17 kts | 246° |
| 2026-05-04 00:21 | 40.84835 | -77.85262 | 1211 ft | 13 kts | 333° |
| 2026-05-04 00:21 | 40.84894 | -77.85312 | 1211 ft | 6 kts | 307° |
| 2026-05-04 00:22 | 40.84883 | -77.85397 | 1211 ft | 7 kts | 264° |
| 2026-05-04 00:22 | 40.84874 | -77.85394 | 1211 ft | 0 kts | 60° |